CheckWX is a tool to help pilots better visualize weather data.  It is not intended as a substitute for an official pre-flight weather briefing.

08:25:29 UTC

EGPI TAF
Islay Airport
Port Ellen, United Kingdom
TAF EGPI 140501Z 1406/1415 02009KT 9999 FEW045 PROB40 TEMPO 1406/1415 01015G25KT

Nov-14@
06:00 UTC

Nov-14 @ 06:00 UTC

Nov-14@
15:00 UTC

Nov-14 @ 15:00 UTC

TAF EGPI 140501Z 1406/1415 02009KT 9999 FEW045
Wind
  • 020° at 9 KTS
Cloud Levels
  • Few at 4,500' AGL

Nov-14@
06:00 UTC

Nov-14 @ 06:00 UTC

Nov-14@
15:00 UTC

Nov-14 @ 15:00 UTC

PROB40 TEMPO 1406/1415 01015G25KT

Temporary - 40% Likelihood

Temporary - 40% Likelihood during this time.

Wind
  • 010° at 15 KTS
  • {Gusting to 25 KTS